Terminal Aerodrome Forecast
Issued by NWS

Home | Current Version | Previous Version | Text Only | Print | Product List | Glossary On
Versions: 1 2 3 4 5 6 7 8 9 10 11 12 13 14 15
039
FTUS41 KAKQ 250803 AAA
TAFPHF
TAF AMD
KPHF 250803Z 2508/2606 00000KT P6SM SKC
      TEMPO 2508/2511 1 1/2SM BR SKC
     FM251300 23003KT P6SM SKC
     FM251600 23007KT P6SM SKC
     FM260200 27007KT P6SM BKN200=

USA.gov is the U.S. government's official web portal to all federal, state and local government web resources and services.